sensor_id;sensor_type;location;lat;lon;timestamp;temperature;humidity
33149;DHT22;19506;51.040;3.856;2022-12-07T04:50:18;16.10;99.90
33149;DHT22;19506;51.040;3.856;2022-12-07T04:52:44;16.20;99.90
33149;DHT22;19506;51.040;3.856;2022-12-07T04:55:09;16.30;99.90
33149;DHT22;19506;51.040;3.856;2022-12-07T04:57:35;16.50;99.90
33149;DHT22;19506;51.040;3.856;2022-12-07T05:00:01;16.70;99.90
33149;DHT22;19506;51.040;3.856;2022-12-07T05:02:26;16.70;99.90
33149;DHT22;19506;51.040;3.856;2022-12-07T05:04:53;16.90;99.90
33149;DHT22;19506;51.040;3.856;2022-12-07T16:08:09;13.70;99.90
33149;DHT22;19506;51.040;3.856;2022-12-07T16:10:35;14.30;99.90
33149;DHT22;19506;51.040;3.856;2022-12-07T16:13:01;14.90;99.90
33149;DHT22;19506;51.040;3.856;2022-12-07T16:15:27;15.30;99.90
33149;DHT22;19506;51.040;3.856;2022-12-07T16:17:52;15.60;99.90
33149;DHT22;19506;51.040;3.856;2022-12-07T16:20:19;15.80;99.90
33149;DHT22;19506;51.040;3.856;2022-12-07T16:22:45;16.00;99.90
33149;DHT22;19506;51.040;3.856;2022-12-07T16:25:10;16.10;99.90
33149;DHT22;19506;51.040;3.856;2022-12-07T16:27:36;16.20;99.90
33149;DHT22;19506;51.040;3.856;2022-12-07T16:30:02;16.30;99.90
33149;DHT22;19506;51.040;3.856;2022-12-07T16:32:28;16.40;99.90
33149;DHT22;19506;51.040;3.856;2022-12-07T16:34:53;16.50;99.90
33149;DHT22;19506;51.040;3.856;2022-12-07T16:37:19;16.60;99.90
33149;DHT22;19506;51.040;3.856;2022-12-07T16:39:45;16.70;99.90
33149;DHT22;19506;51.040;3.856;2022-12-07T16:42:10;16.70;99.90
33149;DHT22;19506;51.040;3.856;2022-12-07T16:44:36;16.80;99.90
33149;DHT22;19506;51.040;3.856;2022-12-07T16:47:01;16.80;99.90
33149;DHT22;19506;51.040;3.856;2022-12-07T16:49:27;16.90;99.90
33149;DHT22;19506;51.040;3.856;2022-12-07T16:51:53;17.00;99.90
33149;DHT22;19506;51.040;3.856;2022-12-07T16:54:19;17.00;99.90
33149;DHT22;19506;51.040;3.856;2022-12-07T16:56:44;17.10;99.90
33149;DHT22;19506;51.040;3.856;2022-12-07T16:59:10;17.10;99.90
33149;DHT22;19506;51.040;3.856;2022-12-07T17:01:36;17.20;99.90
33149;DHT22;19506;51.040;3.856;2022-12-07T17:04:03;17.30;99.90
33149;DHT22;19506;51.040;3.856;2022-12-07T17:06:30;17.30;99.90
33149;DHT22;19506;51.040;3.856;2022-12-07T17:08:56;17.40;99.90
33149;DHT22;19506;51.040;3.856;2022-12-07T17:11:29;17.40;99.90
33149;DHT22;19506;51.040;3.856;2022-12-07T17:13:58;17.50;99.90
33149;DHT22;19506;51.040;3.856;2022-12-07T17:16:42;17.50;99.90
33149;DHT22;19506;51.040;3.856;2022-12-07T17:19:11;17.60;99.90
33149;DHT22;19506;51.040;3.856;2022-12-07T17:21:37;17.70;99.90
33149;DHT22;19506;51.040;3.856;2022-12-07T17:24:06;17.70;99.90
33149;DHT22;19506;51.040;3.856;2022-12-07T17:26:32;17.90;99.90
33149;DHT22;19506;51.040;3.856;2022-12-07T17:28:58;17.90;99.90
33149;DHT22;19506;51.040;3.856;2022-12-07T17:31:24;17.90;99.90
33149;DHT22;19506;51.040;3.856;2022-12-07T17:33:50;17.90;99.90
33149;DHT22;19506;51.040;3.856;2022-12-07T17:36:19;18.00;99.90
33149;DHT22;19506;51.040;3.856;2022-12-07T17:38:45;18.00;99.90
33149;DHT22;19506;51.040;3.856;2022-12-07T17:41:15;18.10;99.90
33149;DHT22;19506;51.040;3.856;2022-12-07T17:44:00;18.20;99.90
33149;DHT22;19506;51.040;3.856;2022-12-07T17:46:26;18.20;99.90
33149;DHT22;19506;51.040;3.856;2022-12-07T17:48:56;18.20;99.90
33149;DHT22;19506;51.040;3.856;2022-12-07T17:51:22;18.20;99.90
33149;DHT22;19506;51.040;3.856;2022-12-07T17:54:06;18.20;99.90
33149;DHT22;19506;51.040;3.856;2022-12-07T17:56:32;18.20;99.90
33149;DHT22;19506;51.040;3.856;2022-12-07T17:58:58;18.10;99.90
33149;DHT22;19506;51.040;3.856;2022-12-07T18:01:23;18.10;99.90
33149;DHT22;19506;51.040;3.856;2022-12-07T18:03:49;18.00;99.90
33149;DHT22;19506;51.040;3.856;2022-12-07T18:06:15;18.10;99.90
33149;DHT22;19506;51.040;3.856;2022-12-07T18:08:40;18.10;99.90
33149;DHT22;19506;51.040;3.856;2022-12-07T18:11:06;18.20;99.90
33149;DHT22;19506;51.040;3.856;2022-12-07T18:13:33;18.20;99.90
33149;DHT22;19506;51.040;3.856;2022-12-07T18:16:14;18.20;99.90
33149;DHT22;19506;51.040;3.856;2022-12-07T18:18:41;18.20;99.90
33149;DHT22;19506;51.040;3.856;2022-12-07T18:21:10;18.20;99.90
33149;DHT22;19506;51.040;3.856;2022-12-07T18:23:41;18.20;99.90
33149;DHT22;19506;51.040;3.856;2022-12-07T18:26:07;18.20;99.90
33149;DHT22;19506;51.040;3.856;2022-12-07T18:28:32;18.20;99.90
33149;DHT22;19506;51.040;3.856;2022-12-07T18:30:58;18.20;99.90
33149;DHT22;19506;51.040;3.856;2022-12-07T18:33:24;18.30;99.90
33149;DHT22;19506;51.040;3.856;2022-12-07T18:35:49;18.30;99.90
33149;DHT22;19506;51.040;3.856;2022-12-07T18:38:16;18.30;99.90
33149;DHT22;19506;51.040;3.856;2022-12-07T18:40:43;18.30;99.90
33149;DHT22;19506;51.040;3.856;2022-12-07T18:43:09;18.30;99.90
33149;DHT22;19506;51.040;3.856;2022-12-07T18:45:36;18.30;99.90
33149;DHT22;19506;51.040;3.856;2022-12-07T18:48:03;18.30;99.90
33149;DHT22;19506;51.040;3.856;2022-12-07T18:50:28;18.30;99.90
33149;DHT22;19506;51.040;3.856;2022-12-07T18:53:02;18.30;99.90
33149;DHT22;19506;51.040;3.856;2022-12-07T18:55:29;18.30;99.90
33149;DHT22;19506;51.040;3.856;2022-12-07T18:57:56;18.30;99.90
33149;DHT22;19506;51.040;3.856;2022-12-07T19:00:23;18.30;99.90
33149;DHT22;19506;51.040;3.856;2022-12-07T19:02:50;18.30;99.90
33149;DHT22;19506;51.040;3.856;2022-12-07T19:05:16;18.30;99.90
33149;DHT22;19506;51.040;3.856;2022-12-07T19:07:42;18.30;99.90
33149;DHT22;19506;51.040;3.856;2022-12-07T19:10:09;18.30;99.90
33149;DHT22;19506;51.040;3.856;2022-12-07T19:12:35;18.30;99.90
33149;DHT22;19506;51.040;3.856;2022-12-07T19:15:01;18.30;99.90
33149;DHT22;19506;51.040;3.856;2022-12-07T19:17:27;18.30;99.90
33149;DHT22;19506;51.040;3.856;2022-12-07T19:19:53;18.40;99.90
33149;DHT22;19506;51.040;3.856;2022-12-07T19:22:20;18.40;99.90
33149;DHT22;19506;51.040;3.856;2022-12-07T19:24:51;18.40;99.90
33149;DHT22;19506;51.040;3.856;2022-12-07T19:27:18;18.40;99.90
33149;DHT22;19506;51.040;3.856;2022-12-07T19:29:45;18.40;99.90
33149;DHT22;19506;51.040;3.856;2022-12-07T19:32:11;18.40;99.90
33149;DHT22;19506;51.040;3.856;2022-12-07T19:34:38;18.40;99.90
33149;DHT22;19506;51.040;3.856;2022-12-07T19:37:05;18.50;99.90
33149;DHT22;19506;51.040;3.856;2022-12-07T19:39:32;18.50;99.90
33149;DHT22;19506;51.040;3.856;2022-12-07T19:41:58;18.50;99.90
33149;DHT22;19506;51.040;3.856;2022-12-07T19:44:25;18.60;99.90
33149;DHT22;19506;51.040;3.856;2022-12-07T19:46:53;18.60;99.90
33149;DHT22;19506;51.040;3.856;2022-12-07T19:49:21;18.70;99.90
33149;DHT22;19506;51.040;3.856;2022-12-07T19:51:49;18.70;99.90
33149;DHT22;19506;51.040;3.856;2022-12-07T19:54:17;18.70;99.90
33149;DHT22;19506;51.040;3.856;2022-12-07T19:56:44;18.70;99.90
33149;DHT22;19506;51.040;3.856;2022-12-07T19:59:12;18.70;99.90
33149;DHT22;19506;51.040;3.856;2022-12-07T20:01:38;18.70;99.90
33149;DHT22;19506;51.040;3.856;2022-12-07T20:04:06;18.70;99.90
33149;DHT22;19506;51.040;3.856;2022-12-07T20:06:33;18.70;99.90
33149;DHT22;19506;51.040;3.856;2022-12-07T20:08:59;18.70;99.90
33149;DHT22;19506;51.040;3.856;2022-12-07T20:11:24;18.70;99.90
33149;DHT22;19506;51.040;3.856;2022-12-07T20:14:10;18.80;99.90
33149;DHT22;19506;51.040;3.856;2022-12-07T20:16:37;18.80;99.90
33149;DHT22;19506;51.040;3.856;2022-12-07T20:19:06;18.80;99.90
33149;DHT22;19506;51.040;3.856;2022-12-07T20:21:31;18.90;99.90
33149;DHT22;19506;51.040;3.856;2022-12-07T20:24:02;18.90;99.90
33149;DHT22;19506;51.040;3.856;2022-12-07T20:26:28;18.80;99.90
33149;DHT22;19506;51.040;3.856;2022-12-07T20:28:54;18.80;99.90
33149;DHT22;19506;51.040;3.856;2022-12-07T20:31:20;18.80;99.90
33149;DHT22;19506;51.040;3.856;2022-12-07T20:33:47;18.80;99.90
33149;DHT22;19506;51.040;3.856;2022-12-07T20:36:16;18.80;99.90
33149;DHT22;19506;51.040;3.856;2022-12-07T20:38:43;18.80;99.90
33149;DHT22;19506;51.040;3.856;2022-12-07T20:41:10;18.80;99.90
33149;DHT22;19506;51.040;3.856;2022-12-07T20:43:57;18.90;99.90
33149;DHT22;19506;51.040;3.856;2022-12-07T20:46:24;18.80;99.90
33149;DHT22;19506;51.040;3.856;2022-12-07T20:48:50;18.70;99.90
33149;DHT22;19506;51.040;3.856;2022-12-07T20:51:16;18.70;99.90
33149;DHT22;19506;51.040;3.856;2022-12-07T20:53:41;18.70;99.90
33149;DHT22;19506;51.040;3.856;2022-12-07T20:56:19;18.70;99.90
33149;DHT22;19506;51.040;3.856;2022-12-07T20:58:46;18.70;99.90
33149;DHT22;19506;51.040;3.856;2022-12-07T21:01:11;18.70;99.90
33149;DHT22;19506;51.040;3.856;2022-12-07T21:03:37;18.60;99.90
33149;DHT22;19506;51.040;3.856;2022-12-07T21:06:03;18.40;99.90
33149;DHT22;19506;51.040;3.856;2022-12-07T21:08:29;18.30;99.90
33149;DHT22;19506;51.040;3.856;2022-12-07T21:10:54;18.20;99.90
33149;DHT22;19506;51.040;3.856;2022-12-07T21:13:20;18.10;99.90
33149;DHT22;19506;51.040;3.856;2022-12-07T21:15:45;17.90;99.90
33149;DHT22;19506;51.040;3.856;2022-12-07T21:18:11;17.80;99.90
33149;DHT22;19506;51.040;3.856;2022-12-07T21:20:37;17.80;99.90
33149;DHT22;19506;51.040;3.856;2022-12-07T21:23:02;17.80;99.90
33149;DHT22;19506;51.040;3.856;2022-12-07T21:25:28;17.80;99.90
33149;DHT22;19506;51.040;3.856;2022-12-07T21:27:53;17.70;99.90
33149;DHT22;19506;51.040;3.856;2022-12-07T21:30:19;17.70;99.90
33149;DHT22;19506;51.040;3.856;2022-12-07T21:32:45;17.70;99.90
33149;DHT22;19506;51.040;3.856;2022-12-07T21:35:11;17.60;99.90
33149;DHT22;19506;51.040;3.856;2022-12-07T21:37:36;17.60;99.90
33149;DHT22;19506;51.040;3.856;2022-12-07T21:40:02;17.60;99.90
33149;DHT22;19506;51.040;3.856;2022-12-07T21:42:28;17.80;99.90
33149;DHT22;19506;51.040;3.856;2022-12-07T21:44:54;17.90;99.90
33149;DHT22;19506;51.040;3.856;2022-12-07T21:47:19;18.00;99.90
33149;DHT22;19506;51.040;3.856;2022-12-07T21:49:45;18.00;99.90
33149;DHT22;19506;51.040;3.856;2022-12-07T21:52:10;18.00;99.90
33149;DHT22;19506;51.040;3.856;2022-12-07T21:54:36;18.00;99.90
33149;DHT22;19506;51.040;3.856;2022-12-07T21:57:02;18.00;99.90
33149;DHT22;19506;51.040;3.856;2022-12-07T21:59:27;18.00;99.90
33149;DHT22;19506;51.040;3.856;2022-12-07T22:01:53;17.90;99.90
33149;DHT22;19506;51.040;3.856;2022-12-07T22:04:22;17.90;99.90
33149;DHT22;19506;51.040;3.856;2022-12-07T22:06:48;17.90;99.90
33149;DHT22;19506;51.040;3.856;2022-12-07T22:09:14;17.90;99.90
33149;DHT22;19506;51.040;3.856;2022-12-07T22:11:40;17.80;99.90
33149;DHT22;19506;51.040;3.856;2022-12-07T22:14:06;17.80;99.90
33149;DHT22;19506;51.040;3.856;2022-12-07T22:16:51;17.80;99.90
33149;DHT22;19506;51.040;3.856;2022-12-07T22:19:17;17.80;99.90
33149;DHT22;19506;51.040;3.856;2022-12-07T22:21:43;17.70;99.90
33149;DHT22;19506;51.040;3.856;2022-12-07T22:24:09;17.70;99.90
33149;DHT22;19506;51.040;3.856;2022-12-07T22:26:35;17.70;99.90
33149;DHT22;19506;51.040;3.856;2022-12-07T22:29:01;17.70;99.90
33149;DHT22;19506;51.040;3.856;2022-12-07T22:31:27;17.60;99.90
33149;DHT22;19506;51.040;3.856;2022-12-07T22:33:53;17.70;99.90
33149;DHT22;19506;51.040;3.856;2022-12-07T22:36:19;17.60;99.90
33149;DHT22;19506;51.040;3.856;2022-12-07T22:38:45;17.60;99.90
33149;DHT22;19506;51.040;3.856;2022-12-07T22:41:30;17.60;99.90
33149;DHT22;19506;51.040;3.856;2022-12-07T22:43:56;17.60;99.90
33149;DHT22;19506;51.040;3.856;2022-12-07T22:46:23;17.70;99.90
33149;DHT22;19506;51.040;3.856;2022-12-07T22:48:49;17.60;99.90
33149;DHT22;19506;51.040;3.856;2022-12-07T22:51:27;17.50;99.90
33149;DHT22;19506;51.040;3.856;2022-12-07T22:53:54;17.50;99.90
33149;DHT22;19506;51.040;3.856;2022-12-07T22:56:20;17.40;99.90
33149;DHT22;19506;51.040;3.856;2022-12-07T22:58:46;17.40;99.90
33149;DHT22;19506;51.040;3.856;2022-12-07T23:01:14;17.30;99.90
33149;DHT22;19506;51.040;3.856;2022-12-07T23:03:40;17.40;99.90
33149;DHT22;19506;51.040;3.856;2022-12-07T23:06:07;17.30;99.90
33149;DHT22;19506;51.040;3.856;2022-12-07T23:08:34;17.30;99.90
33149;DHT22;19506;51.040;3.856;2022-12-07T23:10:59;17.30;99.90
33149;DHT22;19506;51.040;3.856;2022-12-07T23:13:25;17.30;99.90
33149;DHT22;19506;51.040;3.856;2022-12-07T23:16:11;17.30;99.90
33149;DHT22;19506;51.040;3.856;2022-12-07T23:18:38;17.30;99.90
33149;DHT22;19506;51.040;3.856;2022-12-07T23:21:04;17.40;99.90
33149;DHT22;19506;51.040;3.856;2022-12-07T23:23:30;17.30;99.90
33149;DHT22;19506;51.040;3.856;2022-12-07T23:26:04;17.30;99.90
33149;DHT22;19506;51.040;3.856;2022-12-07T23:28:31;17.30;99.90
33149;DHT22;19506;51.040;3.856;2022-12-07T23:31:05;17.40;99.90
33149;DHT22;19506;51.040;3.856;2022-12-07T23:33:31;17.40;99.90
33149;DHT22;19506;51.040;3.856;2022-12-07T23:36:18;17.30;99.90
33149;DHT22;19506;51.040;3.856;2022-12-07T23:38:46;17.30;99.90
33149;DHT22;19506;51.040;3.856;2022-12-07T23:41:15;17.30;99.90
33149;DHT22;19506;51.040;3.856;2022-12-07T23:43:42;17.30;99.90
33149;DHT22;19506;51.040;3.856;2022-12-07T23:46:11;17.30;99.90
33149;DHT22;19506;51.040;3.856;2022-12-07T23:48:37;17.30;99.90
33149;DHT22;19506;51.040;3.856;2022-12-07T23:51:04;17.20;99.90
33149;DHT22;19506;51.040;3.856;2022-12-07T23:53:38;17.20;99.90
33149;DHT22;19506;51.040;3.856;2022-12-07T23:56:04;17.10;99.90
33149;DHT22;19506;51.040;3.856;2022-12-07T23:58:31;17.10;99.90
